createdAt,value
2018-06-04T00:01:44.412Z,846.83
2018-06-04T00:04:21.838Z,876.83
2018-06-04T00:07:01.179Z,1048.30
2018-06-04T00:09:38.335Z,1118.70
2018-06-04T00:12:18.440Z,1234.33
2018-06-04T00:14:57.400Z,1241.27
2018-06-04T00:17:35.891Z,1284.17
2018-06-04T00:20:16.554Z,1327.17
2018-06-04T00:22:54.897Z,1366.50
2018-06-04T00:25:34.117Z,1404.77
2018-06-04T00:28:13.535Z,1480.47
2018-06-04T00:30:52.773Z,1475.03
2018-06-04T00:33:32.338Z,1435.17
2018-06-04T00:36:10.771Z,1528.80
2018-06-04T00:38:48.954Z,1567.47
2018-06-04T00:41:27.897Z,1448.20
2018-06-04T00:44:07.139Z,1522.50
2018-06-04T00:46:45.999Z,1437.20
2018-06-04T00:49:25.272Z,1433.57
2018-06-04T00:52:04.150Z,1419.83
2018-06-04T00:54:43.249Z,1354.80
2018-06-04T00:57:23.391Z,1394.37
2018-06-04T01:00:01.815Z,1357.13
2018-06-04T01:02:41.638Z,1336.63
2018-06-04T01:05:21.235Z,1384.33
2018-06-04T01:08:01.330Z,1286.40
2018-06-04T01:10:39.932Z,1325.83
2018-06-04T01:13:21.411Z,1361.53
2018-06-04T01:16:00.036Z,1332.70
2018-06-04T01:18:38.381Z,1326.30
2018-06-04T01:21:16.852Z,1312.47
2018-06-04T01:23:55.693Z,1291.93
2018-06-04T01:26:34.236Z,1257.10
2018-06-04T01:29:13.519Z,1238.17
2018-06-04T01:31:52.475Z,1237.53
2018-06-04T01:34:32.253Z,1225.57
2018-06-04T01:37:11.574Z,1203.30
2018-06-04T01:39:50.254Z,1197.97
2018-06-04T01:42:31.055Z,1195.70
2018-06-04T01:45:09.850Z,1219.80
2018-06-04T01:47:47.954Z,1228.67
2018-06-04T01:50:26.233Z,1235.93
2018-06-04T01:53:06.178Z,1195.97
2018-06-04T01:55:45.058Z,1202.53
2018-06-04T03:06:38.563Z,979.77
2018-06-04T03:09:17.761Z,960.70
2018-06-04T03:12:02.000Z,1093.17
2018-06-04T03:14:42.105Z,1022.83
2018-06-04T03:17:21.524Z,1079.33
2018-06-04T03:20:00.860Z,1084.97
2018-06-04T03:22:40.860Z,1038.23
2018-06-04T03:25:21.023Z,972.50
2018-06-04T03:27:59.243Z,1048.87
2018-06-04T03:30:37.803Z,1135.50
2018-06-04T03:33:19.726Z,1117.50
2018-06-04T03:35:59.760Z,1125.90
2018-06-04T03:38:41.825Z,1128.40
2018-06-04T03:41:21.942Z,1096.80
2018-06-04T03:44:02.169Z,1081.70
2018-06-04T03:46:41.266Z,1067.87
2018-06-04T03:49:23.746Z,1043.47
2018-06-04T03:52:02.780Z,1053.37
2018-06-04T03:54:44.599Z,998.50
2018-06-04T03:57:28.064Z,899.90
2018-06-04T04:00:09.978Z,998.97
2018-06-04T04:02:49.611Z,1085.10
2018-06-04T04:05:29.762Z,1038.07
2018-06-04T04:08:08.818Z,906.43
2018-06-04T05:22:12.047Z,700.90
2018-06-04T05:24:54.624Z,616.97
2018-06-04T05:27:34.987Z,597.87
2018-06-04T05:30:16.529Z,542.97
2018-06-04T05:33:00.381Z,584.67
2018-06-04T05:35:49.624Z,620.30
2018-06-04T05:38:31.850Z,607.27
2018-06-04T05:41:17.103Z,587.10
2018-06-04T05:43:59.926Z,550.30
2018-06-04T05:46:38.703Z,520.47
2018-06-04T05:49:20.101Z,338.27
2018-06-04T05:51:58.589Z,354.97
2018-06-04T05:54:38.546Z,1118.80
2018-06-04T05:57:17.224Z,799.37
2018-06-04T05:59:59.790Z,269.27
2018-06-04T06:02:42.267Z,906.67
2018-06-04T06:05:28.111Z,864.53
2018-06-04T06:08:09.270Z,502.53
2018-06-04T06:10:49.965Z,1209.33
2018-06-04T06:13:30.548Z,1999.90
2018-06-04T06:16:12.753Z,1999.90
2018-06-04T06:18:50.768Z,1999.90
2018-06-04T06:21:28.231Z,1445.83
2018-06-04T06:24:09.488Z,1363.17
2018-06-04T06:26:48.747Z,708.07
2018-06-04T06:29:28.044Z,573.73
2018-06-04T06:32:06.988Z,1999.90
2018-06-04T06:34:45.986Z,878.50
2018-06-04T06:37:25.323Z,1251.90
2018-06-04T06:40:05.649Z,1324.33
2018-06-04T06:42:47.207Z,1370.47
2018-06-04T06:45:27.024Z,1327.60
2018-06-04T06:48:08.031Z,1216.80
2018-06-04T06:50:49.276Z,1078.63
2018-06-04T06:53:28.384Z,923.23
2018-06-04T06:56:10.087Z,715.50
2018-06-04T06:58:52.166Z,986.27
2018-06-04T07:01:30.971Z,187.57
2018-06-04T07:04:09.567Z,189.10
2018-06-04T07:06:54.747Z,186.32
2018-06-04T07:09:33.791Z,92.12
2018-06-04T07:12:12.104Z,78.80
2018-06-04T07:14:52.823Z,61.98
2018-06-04T07:17:34.072Z,85.87
2018-06-04T07:20:14.866Z,99.35
2018-06-04T07:22:55.608Z,137.97
2018-06-04T07:25:41.988Z,170.70
2018-06-04T07:28:22.522Z,159.82
2018-06-04T07:31:03.315Z,203.27
2018-06-04T07:33:44.128Z,221.20
2018-06-04T07:36:28.926Z,243.37
2018-06-04T07:39:12.568Z,202.25
2018-06-04T07:41:51.008Z,208.30
2018-06-04T07:44:32.494Z,220.67
2018-06-04T07:47:20.110Z,216.53
2018-06-04T07:49:58.294Z,209.22
2018-06-04T07:52:37.126Z,279.70
2018-06-04T07:55:19.933Z,280.67
2018-06-04T07:58:00.667Z,288.57
2018-06-04T08:00:45.691Z,290.85
2018-06-04T08:03:23.984Z,304.15
2018-06-04T08:06:03.745Z,308.85
2018-06-04T08:08:43.243Z,306.65
2018-06-04T08:11:23.130Z,343.65
2018-06-04T08:14:01.452Z,345.77
2018-06-04T08:16:39.786Z,371.10
2018-06-04T08:19:19.062Z,326.52
2018-06-04T08:22:01.090Z,355.67
2018-06-04T08:24:40.974Z,320.97
2018-06-04T08:27:19.884Z,389.82
2018-06-04T08:30:08.511Z,477.65
2018-06-04T08:32:46.523Z,565.40
2018-06-04T08:35:24.547Z,558.72
2018-06-04T08:38:02.545Z,568.27
2018-06-04T08:40:41.587Z,566.05
2018-06-04T08:43:26.484Z,550.48
2018-06-04T08:46:05.194Z,463.68
2018-06-04T08:48:49.070Z,343.35
2018-06-04T08:51:31.667Z,236.20
2018-06-04T08:54:16.128Z,256.60
2018-06-04T08:56:58.550Z,277.18
2018-06-04T08:59:48.868Z,220.12
2018-06-04T09:02:30.487Z,283.90
2018-06-04T09:05:15.550Z,266.15
2018-06-04T09:07:55.652Z,274.90
2018-06-04T09:10:38.413Z,274.77
2018-06-04T09:13:21.845Z,170.85
2018-06-04T09:16:01.407Z,160.57
2018-06-04T09:18:43.029Z,107.60
2018-06-04T09:21:24.807Z,207.98
2018-06-04T09:24:01.764Z,181.70
2018-06-04T09:26:42.708Z,127.50
2018-06-04T09:29:24.107Z,133.52
2018-06-04T09:32:04.448Z,163.43
2018-06-04T09:34:42.986Z,160.30
2018-06-04T09:37:25.465Z,119.02
2018-06-04T09:40:08.452Z,123.10
2018-06-04T09:42:55.729Z,110.40
2018-06-04T09:45:35.691Z,128.23
2018-06-04T09:48:17.154Z,109.48
2018-06-04T09:50:59.228Z,149.40
2018-06-04T09:53:43.585Z,153.07
2018-06-04T09:56:23.829Z,157.70
2018-06-04T09:59:06.889Z,191.28
2018-06-04T10:01:50.244Z,181.60
2018-06-04T10:04:31.448Z,169.15
2018-06-04T10:07:12.572Z,175.45
2018-06-04T10:09:50.480Z,208.38
2018-06-04T10:12:36.004Z,149.23
2018-06-04T10:15:18.324Z,128.70
2018-06-04T10:17:56.869Z,147.85
2018-06-04T10:20:37.582Z,187.60
2018-06-04T10:23:16.511Z,148.20
2018-06-04T10:26:04.327Z,162.95
2018-06-04T10:28:45.488Z,210.65
2018-06-04T10:31:30.443Z,246.40
2018-06-04T10:34:15.205Z,292.70
2018-06-04T10:37:00.107Z,439.02
2018-06-04T10:39:38.388Z,473.25
2018-06-04T10:42:21.784Z,356.35
2018-06-04T10:45:10.045Z,329.63
2018-06-04T10:47:53.046Z,410.55
2018-06-04T10:50:35.208Z,267.43
2018-06-04T10:53:20.363Z,186.57
2018-06-04T10:56:01.447Z,167.65
2018-06-04T10:58:42.905Z,127.42
2018-06-04T11:01:23.525Z,118.75
2018-06-04T11:04:01.705Z,113.08
2018-06-04T11:06:45.006Z,88.07
2018-06-04T11:09:23.264Z,162.82
2018-06-04T11:12:02.769Z,89.62
2018-06-04T11:14:42.906Z,127.22
2018-06-04T11:17:25.750Z,68.78
2018-06-04T11:20:10.548Z,138.20
2018-06-04T11:22:50.090Z,147.05
2018-06-04T11:25:34.989Z,144.47
2018-06-04T11:28:14.031Z,165.82
2018-06-04T11:30:52.027Z,204.87
2018-06-04T12:50:53.394Z,241.55
2018-06-04T12:53:36.240Z,285.93
2018-06-04T12:56:17.259Z,284.70
2018-06-04T12:58:55.896Z,201.30
2018-06-04T13:01:40.052Z,280.18
2018-06-04T13:04:21.458Z,342.05
2018-06-04T13:07:01.632Z,266.40
2018-06-04T13:09:44.939Z,289.45
2018-06-04T13:12:24.452Z,313.90
2018-06-04T13:15:06.335Z,337.98
2018-06-04T13:17:45.250Z,312.27
2018-06-04T13:20:32.278Z,283.07
2018-06-04T13:23:11.532Z,252.32
2018-06-04T13:25:51.790Z,239.23
2018-06-04T14:58:04.569Z,96.55
2018-06-04T15:00:46.840Z,105.67
2018-06-04T15:03:32.495Z,118.97
2018-06-04T15:06:11.080Z,158.15
2018-06-04T15:08:52.358Z,131.47
2018-06-04T15:11:29.854Z,150.35
2018-06-04T15:14:11.979Z,173.10
2018-06-04T15:16:53.759Z,211.92
2018-06-04T15:19:34.632Z,194.85
2018-06-04T15:22:18.913Z,213.07
2018-06-04T15:24:59.836Z,205.20
2018-06-04T16:39:04.427Z,57.38
2018-06-04T16:41:44.747Z,50.03
2018-06-04T16:44:24.800Z,70.25
2018-06-04T16:47:06.602Z,69.10
2018-06-04T16:49:47.461Z,73.80
2018-06-04T16:52:25.962Z,53.25
2018-06-04T16:55:12.460Z,60.83
2018-06-04T16:57:54.805Z,90.92
2018-06-04T17:00:40.142Z,61.10
2018-06-04T17:03:17.758Z,91.08
2018-06-04T17:06:06.379Z,85.65
2018-06-04T17:08:47.782Z,61.48
2018-06-04T17:11:29.383Z,77.55
2018-06-04T17:14:19.365Z,54.20
2018-06-04T17:16:57.461Z,87.85
2018-06-04T17:19:38.505Z,96.78
2018-06-04T17:22:22.757Z,76.97
2018-06-04T17:25:03.002Z,85.85
2018-06-04T17:27:46.120Z,67.82
2018-06-04T17:30:25.720Z,82.12
2018-06-04T17:33:07.881Z,88.25
2018-06-04T17:35:50.867Z,54.20
2018-06-04T17:38:32.579Z,65.12
2018-06-04T17:41:10.490Z,74.90
2018-06-04T17:43:48.119Z,183.52
2018-06-04T17:46:30.044Z,86.30
2018-06-04T19:03:46.248Z,602.20
2018-06-04T19:06:32.446Z,621.70
2018-06-04T19:09:17.476Z,624.38
2018-06-04T19:11:58.337Z,635.60
2018-06-04T19:14:40.739Z,605.70
2018-06-04T20:43:58.041Z,134.10
2018-06-04T20:46:36.455Z,201.43
2018-06-04T20:49:14.853Z,174.83
2018-06-04T20:51:52.404Z,161.33
2018-06-04T20:54:31.354Z,230.27
2018-06-04T20:57:11.394Z,110.17
2018-06-04T20:59:49.571Z,152.17
2018-06-04T21:02:32.275Z,148.63
2018-06-04T21:05:11.651Z,186.53
2018-06-04T21:07:51.732Z,291.67
2018-06-04T21:10:31.793Z,148.33
2018-06-04T21:13:09.773Z,182.20
2018-06-04T21:15:49.233Z,215.07
2018-06-04T21:18:28.795Z,237.33
2018-06-04T21:21:07.435Z,457.80
2018-06-04T21:23:45.954Z,382.77
2018-06-04T21:26:22.953Z,431.10
2018-06-04T21:29:02.014Z,562.43
2018-06-04T21:31:43.457Z,558.33
2018-06-04T21:34:23.679Z,908.27
2018-06-04T21:37:01.234Z,1017.20
2018-06-04T21:39:40.234Z,1057.00
2018-06-04T21:42:19.134Z,1033.20
2018-06-04T21:44:59.576Z,1051.50
2018-06-04T21:47:36.755Z,1077.07
2018-06-04T22:33:03.772Z,519.87
2018-06-04T22:35:42.171Z,639.00
2018-06-04T22:38:23.138Z,519.03
2018-06-04T22:41:02.449Z,653.97
2018-06-04T22:43:41.175Z,863.47
2018-06-04T22:46:20.815Z,876.90
2018-06-04T22:48:59.470Z,1088.60
2018-06-04T22:51:38.230Z,1155.03
2018-06-04T22:54:17.798Z,1195.00
2018-06-04T22:56:57.737Z,1256.30
2018-06-04T22:59:37.180Z,1297.30
2018-06-04T23:02:16.690Z,1403.80
2018-06-04T23:04:56.771Z,1569.63
2018-06-04T23:07:39.701Z,1813.87
2018-06-04T23:10:16.793Z,1930.13
2018-06-04T23:12:58.674Z,1999.90
2018-06-04T23:15:38.735Z,1999.90
2018-06-04T23:18:17.633Z,1999.90
2018-06-04T23:20:56.291Z,1999.90
2018-06-04T23:23:35.511Z,1999.90
2018-06-04T23:26:14.773Z,1999.90
2018-06-04T23:28:55.715Z,1919.17
2018-06-04T23:31:35.633Z,1867.00
2018-06-04T23:34:14.335Z,1702.83
2018-06-04T23:36:52.900Z,1644.07
2018-06-04T23:39:30.013Z,1517.93
2018-06-04T23:42:10.540Z,1472.03
2018-06-04T23:44:48.392Z,1446.37
2018-06-04T23:47:27.633Z,1389.70
2018-06-04T23:50:07.629Z,1305.77
2018-06-04T23:52:47.016Z,1292.17
2018-06-04T23:55:27.334Z,1213.23
2018-06-04T23:58:06.772Z,1201.63
